Time;durP1;ratioP1;P1;durP2;ratioP2;P2;SDS_P1;SDS_P2;PMS_P1;PMS_P2;Temp;Humidity;BMP_temperature;BMP_pressure;BME280_temperature;BME280_humidity;BME280_pressure;Samples;Min_cycle;Max_cycle;Signal;HPM_P1;HPM_P2
2021/05/25 00:00:20;;;;;;;0.63;0.30;;;11.30;77.90;;;;;;5113728;28;20028;-69
2021/05/25 00:02:47;;;;;;;0.52;0.20;;;11.30;77.80;;;;;;5113329;28;20020;-73
2021/05/25 00:05:16;;;;;;;0.65;0.25;;;11.30;77.80;;;;;;5095251;28;20028;-69
2021/05/25 00:07:42;;;;;;;1.00;0.30;;;11.30;77.60;;;;;;5113629;28;20044;-69
2021/05/25 00:10:08;;;;;;;3.88;0.45;;;11.30;78.00;;;;;;5112862;28;20088;-69
2021/05/25 00:12:34;;;;;;;0.30;0.20;;;11.30;77.70;;;;;;5113595;28;20160;-69
2021/05/25 00:15:00;;;;;;;1.30;0.20;;;11.30;77.80;;;;;;5094629;28;20118;-69
2021/05/25 00:17:26;;;;;;;1.38;0.13;;;11.30;77.80;;;;;;5095292;28;20118;-69
2021/05/25 00:19:52;;;;;;;1.88;0.30;;;11.30;78.00;;;;;;5112869;28;20488;-70
2021/05/25 00:22:17;;;;;;;2.05;0.20;;;11.30;77.40;;;;;;5113404;28;20085;-69
2021/05/25 00:24:43;;;;;;;2.35;0.30;;;11.30;77.70;;;;;;5095047;28;20529;-69
2021/05/25 00:27:10;;;;;;;1.35;0.25;;;11.30;77.30;;;;;;5112950;28;20031;-70
2021/05/25 00:29:36;;;;;;;0.40;0.20;;;11.20;77.30;;;;;;5094896;28;20038;-69
2021/05/25 00:32:01;;;;;;;0.82;0.30;;;11.20;77.20;;;;;;5094380;28;20114;-69
2021/05/25 00:34:27;;;;;;;0.90;0.20;;;11.20;77.10;;;;;;5095064;28;20030;-69
2021/05/25 00:36:53;;;;;;;2.20;0.40;;;11.20;77.10;;;;;;5112311;28;20440;-70
2021/05/25 00:39:18;;;;;;;1.67;0.20;;;11.20;76.40;;;;;;5094668;28;20035;-69
2021/05/25 00:41:44;;;;;;;0.77;0.20;;;11.20;76.30;;;;;;5094224;28;20051;-69
2021/05/25 00:44:10;;;;;;;1.40;0.28;;;11.20;76.40;;;;;;5094291;28;20031;-69
2021/05/25 00:46:37;;;;;;;2.15;0.20;;;11.10;75.20;;;;;;5113107;28;20420;-70
2021/05/25 00:49:04;;;;;;;1.33;0.40;;;11.10;75.00;;;;;;5112374;28;20032;-69
2021/05/25 00:51:31;;;;;;;0.75;0.25;;;11.10;74.50;;;;;;5094702;28;20038;-69
2021/05/25 00:53:56;;;;;;;2.05;0.22;;;11.10;74.20;;;;;;5112358;28;20056;-69
2021/05/25 00:56:22;;;;;;;0.85;0.30;;;11.10;74.00;;;;;;5094615;28;20464;-69
2021/05/25 00:58:50;;;;;;;0.28;0.20;;;11.10;73.90;;;;;;5094786;28;20031;-69
2021/05/25 01:01:16;;;;;;;0.57;0.30;;;11.10;73.50;;;;;;5094717;28;20031;-69
2021/05/25 01:03:41;;;;;;;1.10;0.25;;;11.10;73.40;;;;;;5094712;28;20361;-69
2021/05/25 01:06:07;;;;;;;2.08;0.40;;;11.10;72.60;;;;;;5090299;28;20047;-69
2021/05/25 01:08:34;;;;;;;0.25;0.10;;;11.10;71.70;;;;;;5092255;28;20028;-69
2021/05/25 01:11:05;;;;;;;0.60;0.10;;;11.00;71.50;;;;;;5090429;28;20024;-69
2021/05/25 01:13:40;;;;;;;0.20;0.13;;;11.00;71.50;;;;;;5091533;28;20043;-69
2021/05/25 01:16:06;;;;;;;0.63;0.20;;;11.00;71.40;;;;;;5091887;28;20030;-69
2021/05/25 01:18:32;;;;;;;0.35;0.20;;;11.00;71.40;;;;;;5091117;28;20024;-69
2021/05/25 01:20:58;;;;;;;0.68;0.25;;;11.00;71.50;;;;;;5091536;28;20366;-69
2021/05/25 01:23:24;;;;;;;0.93;0.20;;;11.00;71.20;;;;;;5091046;28;20031;-69
2021/05/25 01:25:50;;;;;;;1.48;0.20;;;11.00;71.50;;;;;;5092346;28;20027;-69
2021/05/25 01:28:19;;;;;;;0.28;0.20;;;11.00;71.20;;;;;;5090402;28;20028;-69
2021/05/25 01:30:48;;;;;;;1.52;0.30;;;11.00;71.10;;;;;;5090977;28;20024;-69
2021/05/25 01:33:15;;;;;;;0.60;0.20;;;11.00;71.30;;;;;;5090414;28;20521;-69
2021/05/25 01:35:42;;;;;;;0.95;0.28;;;11.00;71.50;;;;;;5091914;28;20032;-69
2021/05/25 01:38:09;;;;;;;0.57;0.10;;;11.00;71.80;;;;;;5090370;28;20029;-69
2021/05/25 01:40:35;;;;;;;1.75;0.20;;;11.00;71.70;;;;;;5091052;28;20035;-69
2021/05/25 01:43:01;;;;;;;1.73;0.30;;;11.00;71.80;;;;;;5090272;28;20123;-69
2021/05/25 01:45:29;;;;;;;1.48;0.20;;;11.00;72.00;;;;;;5090856;28;20020;-69
2021/05/25 01:47:57;;;;;;;1.10;0.20;;;10.90;72.10;;;;;;5090325;28;20115;-69
2021/05/25 01:50:25;;;;;;;1.65;0.30;;;10.90;72.20;;;;;;5090785;28;20035;-69
2021/05/25 01:52:55;;;;;;;0.50;0.25;;;10.80;72.60;;;;;;5093589;28;20035;-69
2021/05/25 01:55:28;;;;;;;1.20;0.45;;;10.80;72.80;;;;;;5095841;28;20020;-69
2021/05/25 01:58:17;;;;;;;0.22;0.13;;;10.80;73.40;;;;;;5095149;28;20070;-69
2021/05/25 02:00:55;;;;;;;1.85;0.30;;;10.80;74.10;;;;;;5095459;28;20051;-69
2021/05/25 02:03:21;;;;;;;0.38;0.25;;;10.70;74.60;;;;;;5094667;28;20090;-69
2021/05/25 02:05:49;;;;;;;0.65;0.22;;;10.70;74.90;;;;;;5094753;28;20032;-69
2021/05/25 02:08:17;;;;;;;0.90;0.20;;;10.70;75.60;;;;;;5115409;28;20054;-70
2021/05/25 02:10:48;;;;;;;0.60;0.30;;;10.70;76.20;;;;;;5115786;28;20032;-69
2021/05/25 02:13:16;;;;;;;1.55;0.22;;;10.70;76.30;;;;;;5115044;28;20036;-69
2021/05/25 02:15:46;;;;;;;1.45;0.38;;;10.70;76.10;;;;;;5115652;28;20027;-69
2021/05/25 02:18:14;;;;;;;2.88;0.30;;;10.60;76.10;;;;;;5096820;28;20414;-69
2021/05/25 02:20:41;;;;;;;0.75;0.28;;;10.60;75.90;;;;;;5097637;28;20088;-69
2021/05/25 02:23:08;;;;;;;1.23;0.30;;;10.70;75.90;;;;;;5115070;28;20055;-69
2021/05/25 02:25:34;;;;;;;2.05;0.30;;;10.70;75.70;;;;;;5097449;28;20028;-69
2021/05/25 02:28:02;;;;;;;1.65;0.20;;;10.70;75.20;;;;;;5096737;28;20031;-69
2021/05/25 02:30:28;;;;;;;3.65;0.30;;;10.70;74.40;;;;;;5097319;28;20028;-69
2021/05/25 02:32:55;;;;;;;0.38;0.10;;;10.70;73.90;;;;;;5097294;28;20033;-70
2021/05/25 02:35:21;;;;;;;2.58;0.30;;;10.80;73.50;;;;;;5115117;28;20035;-69
2021/05/25 02:37:47;;;;;;;1.70;0.30;;;10.80;72.90;;;;;;5115638;28;20457;-69
2021/05/25 02:40:13;;;;;;;2.38;0.25;;;10.80;73.00;;;;;;5114725;28;20035;-69
2021/05/25 02:42:39;;;;;;;0.32;0.20;;;10.80;72.00;;;;;;5097077;28;20031;-69
2021/05/25 02:45:06;;;;;;;2.95;0.30;;;10.80;71.90;;;;;;5096411;28;20028;-69
2021/05/25 02:47:32;;;;;;;2.33;0.20;;;10.90;72.00;;;;;;5096885;28;20034;-69
2021/05/25 02:50:06;;;;;;;3.35;0.30;;;10.90;72.30;;;;;;5096136;28;20035;-70
2021/05/25 02:52:43;;;;;;;1.75;0.15;;;11.00;72.40;;;;;;5097130;28;20074;-69
2021/05/25 02:55:12;;;;;;;2.78;0.22;;;11.00;72.70;;;;;;5114445;28;20027;-69
2021/05/25 02:57:38;;;;;;;2.20;0.55;;;11.00;72.80;;;;;;5096086;28;20024;-69
2021/05/25 03:00:25;;;;;;;0.70;0.40;;;11.00;73.00;;;;;;5114330;28;20028;-69
2021/05/25 03:02:51;;;;;;;1.05;0.28;;;11.00;73.00;;;;;;5114109;28;20066;-69
2021/05/25 03:05:17;;;;;;;1.65;0.30;;;11.00;72.70;;;;;;5114036;28;20447;-69
2021/05/25 03:07:44;;;;;;;2.67;0.30;;;11.00;72.00;;;;;;5114853;28;20060;-69
2021/05/25 03:10:14;;;;;;;1.13;0.20;;;11.00;71.60;;;;;;5095783;28;20464;-69
2021/05/25 03:12:40;;;;;;;2.45;0.30;;;11.10;71.60;;;;;;5114692;28;20024;-69
2021/05/25 03:15:12;;;;;;;0.75;0.30;;;11.00;71.30;;;;;;5114106;28;20034;-69
2021/05/25 03:17:38;;;;;;;0.10;0.10;;;11.10;71.30;;;;;;5114703;28;20023;-70
2021/05/25 03:20:06;;;;;;;1.02;0.25;;;11.10;71.40;;;;;;5095621;28;20028;-69
2021/05/25 03:22:32;;;;;;;0.75;0.50;;;11.10;71.90;;;;;;5096411;28;20444;-69
2021/05/25 03:24:58;;;;;;;2.45;0.40;;;11.10;72.60;;;;;;5113863;28;20054;-72
2021/05/25 03:27:25;;;;;;;1.90;0.20;;;11.10;73.40;;;;;;5114409;28;20034;-69
2021/05/25 03:29:51;;;;;;;2.78;0.20;;;11.00;73.60;;;;;;5096054;28;20395;-69
2021/05/25 03:32:16;;;;;;;1.70;0.22;;;11.00;74.00;;;;;;5095490;28;20119;-69
2021/05/25 03:34:42;;;;;;;3.33;0.20;;;11.00;74.00;;;;;;5096074;28;20353;-69
2021/05/25 03:37:08;;;;;;;2.55;0.30;;;11.00;74.10;;;;;;5113223;28;20023;-69
2021/05/25 03:39:33;;;;;;;1.20;0.32;;;11.00;74.40;;;;;;5095936;28;20036;-69
2021/05/25 03:42:00;;;;;;;3.40;0.30;;;11.00;74.20;;;;;;5095307;28;20481;-73
2021/05/25 03:44:26;;;;;;;0.98;0.55;;;10.90;74.40;;;;;;5114013;28;20487;-68
2021/05/25 03:46:52;;;;;;;1.75;0.38;;;11.00;74.30;;;;;;5095942;28;20487;-69
2021/05/25 03:49:18;;;;;;;1.85;0.20;;;11.00;73.90;;;;;;5095161;28;20024;-69
2021/05/25 03:51:44;;;;;;;1.17;0.28;;;10.90;73.90;;;;;;5095741;28;20024;-69
2021/05/25 03:54:14;;;;;;;1.95;0.30;;;10.90;74.00;;;;;;5095247;28;20384;-69
2021/05/25 03:59:44;;;;;;;1.48;0.20;;;10.90;74.10;;;;;;5050926;28;20136;-69
2021/05/25 04:02:09;;;;;;;2.40;0.35;;;10.90;74.30;;;;;;5033486;28;20115;-69
2021/05/25 04:04:35;;;;;;;1.27;0.32;;;10.90;74.50;;;;;;5079730;28;20476;-69
2021/05/25 04:07:01;;;;;;;1.25;0.30;;;10.90;74.70;;;;;;5112733;28;20048;-72
2021/05/25 04:09:26;;;;;;;2.65;0.30;;;10.80;74.50;;;;;;5113559;28;20032;-69
2021/05/25 04:11:52;;;;;;;0.57;0.28;;;10.80;74.50;;;;;;5113569;28;20384;-69
2021/05/25 04:14:18;;;;;;;1.17;0.30;;;10.80;74.60;;;;;;5112667;28;20103;-69
2021/05/25 04:16:43;;;;;;;2.75;0.40;;;10.80;75.00;;;;;;5113458;28;20480;-69
2021/05/25 04:19:09;;;;;;;3.03;0.55;;;10.80;74.90;;;;;;5094567;28;20024;-69
2021/05/25 04:21:35;;;;;;;3.22;0.40;;;10.90;75.00;;;;;;5113476;28;20433;-71
2021/05/25 04:24:01;;;;;;;4.13;0.20;;;10.90;74.60;;;;;;5095184;28;20027;-71
2021/05/25 04:26:27;;;;;;;1.40;0.50;;;10.80;74.90;;;;;;5095052;28;20028;-71
2021/05/25 04:28:53;;;;;;;3.85;0.30;;;10.80;74.80;;;;;;5113285;28;20016;-70
2021/05/25 04:31:19;;;;;;;3.80;0.30;;;10.80;74.90;;;;;;5094322;28;20134;-71
2021/05/25 04:33:44;;;;;;;1.15;0.20;;;10.80;75.10;;;;;;5113238;28;20081;-71
2021/05/25 04:36:10;;;;;;;2.00;0.20;;;10.80;74.90;;;;;;5094394;28;20104;-71
2021/05/25 04:38:36;;;;;;;0.32;0.20;;;10.80;74.70;;;;;;5095012;28;20427;-71
2021/05/25 04:41:01;;;;;;;1.55;0.35;;;10.80;74.40;;;;;;5094935;28;20034;-71
2021/05/25 04:43:27;;;;;;;0.13;0.13;;;10.80;74.40;;;;;;5112527;28;20059;-70
2021/05/25 04:45:53;;;;;;;1.95;0.13;;;10.80;74.60;;;;;;5094504;28;20027;-71
2021/05/25 04:48:18;;;;;;;1.20;0.40;;;10.80;74.30;;;;;;5112139;28;20080;-71
2021/05/25 04:50:44;;;;;;;0.50;0.20;;;10.80;74.10;;;;;;5094686;28;20376;-70
2021/05/25 04:53:10;;;;;;;1.27;0.30;;;10.80;74.10;;;;;;5094165;28;20400;-71
2021/05/25 04:55:36;;;;;;;3.72;0.20;;;10.80;73.50;;;;;;5094713;28;20031;-71
2021/05/25 04:58:02;;;;;;;0.40;0.10;;;10.80;73.70;;;;;;5112988;28;20019;-70
2021/05/25 05:00:28;;;;;;;0.40;0.10;;;10.80;73.50;;;;;;5112818;28;20031;-70
2021/05/25 05:02:55;;;;;;;0.88;0.15;;;10.80;73.10;;;;;;5112904;28;20046;-71
2021/05/25 05:05:23;;;;;;;1.33;0.10;;;10.80;73.00;;;;;;5094100;28;20427;-71
2021/05/25 05:07:49;;;;;;;1.15;0.28;;;10.80;72.20;;;;;;5112516;28;20173;-71
2021/05/25 05:10:17;;;;;;;0.30;0.10;;;10.70;72.70;;;;;;5112230;28;20496;-71
2021/05/25 05:12:43;;;;;;;1.38;0.10;;;10.80;72.50;;;;;;5094544;28;20027;-70
2021/05/25 05:15:10;;;;;;;0.40;0.10;;;10.80;71.90;;;;;;5112185;28;20027;-71
2021/05/25 05:17:36;;;;;;;1.77;0.20;;;10.80;72.30;;;;;;5094918;28;20114;-70
2021/05/25 05:20:04;;;;;;;1.90;0.30;;;10.80;71.60;;;;;;5094596;28;20032;-70
2021/05/25 05:22:30;;;;;;;1.38;0.10;;;10.80;72.60;;;;;;5112738;28;20046;-71
2021/05/25 05:24:56;;;;;;;0.98;0.30;;;10.80;71.60;;;;;;5094562;28;20464;-71
2021/05/25 05:27:22;;;;;;;0.20;0.10;;;10.80;71.50;;;;;;5096036;28;20028;-71
2021/05/25 05:29:48;;;;;;;0.95;0.20;;;10.80;71.50;;;;;;5098375;28;20035;-71
2021/05/25 05:32:13;;;;;;;0.90;0.38;;;10.90;70.70;;;;;;5115812;28;20441;-71
2021/05/25 05:34:39;;;;;;;1.45;0.28;;;10.90;70.50;;;;;;5098294;28;20031;-70
2021/05/25 05:37:04;;;;;;;0.50;0.20;;;11.00;70.70;;;;;;5097936;28;20035;-71
2021/05/25 05:39:31;;;;;;;0.32;0.10;;;11.00;70.50;;;;;;5115647;28;20039;-71
2021/05/25 05:41:56;;;;;;;0.73;0.20;;;11.00;70.20;;;;;;5098183;28;20027;-71
2021/05/25 05:44:22;;;;;;;1.83;0.30;;;11.00;70.20;;;;;;5097558;28;20383;-71
2021/05/25 05:46:48;;;;;;;1.00;0.28;;;11.00;70.20;;;;;;5116764;28;20023;-71
2021/05/25 05:49:14;;;;;;;0.35;0.20;;;11.00;69.60;;;;;;5115390;28;20028;-71
2021/05/25 05:51:40;;;;;;;0.82;0.20;;;11.00;69.00;;;;;;5115953;28;20082;-70
2021/05/25 05:54:07;;;;;;;1.50;0.10;;;11.00;69.20;;;;;;5097980;28;20024;-71
2021/05/25 05:56:33;;;;;;;3.22;0.45;;;11.10;69.00;;;;;;5116138;28;20020;-71
2021/05/25 05:58:59;;;;;;;1.95;0.43;;;11.10;69.10;;;;;;5116180;28;20039;-70
2021/05/25 06:01:25;;;;;;;0.55;0.20;;;11.20;68.70;;;;;;5115173;28;20031;-71
2021/05/25 06:03:50;;;;;;;1.27;0.20;;;11.20;68.70;;;;;;5116218;28;20500;-71
2021/05/25 06:06:16;;;;;;;0.98;0.30;;;11.30;67.60;;;;;;5096898;28;20477;-71
2021/05/25 06:08:42;;;;;;;1.33;0.13;;;11.30;67.80;;;;;;5115996;28;20506;-70
2021/05/25 06:11:09;;;;;;;1.40;0.35;;;11.40;67.80;;;;;;5115541;28;20028;-72
2021/05/25 06:13:35;;;;;;;1.33;0.30;;;11.30;68.30;;;;;;5115572;28;20034;-71
2021/05/25 06:16:02;;;;;;;1.20;0.30;;;11.30;69.60;;;;;;5115858;28;20027;-71
2021/05/25 06:18:32;;;;;;;0.88;0.22;;;11.30;70.10;;;;;;5115232;28;20020;-71
2021/05/25 06:20:58;;;;;;;0.88;0.30;;;11.20;69.90;;;;;;5097150;28;20063;-70
2021/05/25 06:23:23;;;;;;;0.93;0.20;;;11.20;71.40;;;;;;5096751;28;20388;-71
2021/05/25 06:25:49;;;;;;;2.40;0.30;;;11.20;72.40;;;;;;5097079;28;20031;-71
2021/05/25 06:28:15;;;;;;;1.85;0.60;;;11.20;73.20;;;;;;5096730;28;20028;-71
2021/05/25 06:30:42;;;;;;;1.48;0.30;;;11.20;72.90;;;;;;5097049;28;20027;-71
2021/05/25 06:33:08;;;;;;;0.82;0.20;;;11.20;73.60;;;;;;5097263;28;20028;-71
2021/05/25 06:35:34;;;;;;;0.40;0.20;;;11.10;73.20;;;;;;5114833;28;20028;-70
2021/05/25 06:38:01;;;;;;;2.67;0.32;;;11.00;73.50;;;;;;5097085;28;20036;-70
2021/05/25 06:40:27;;;;;;;2.25;0.30;;;11.00;73.70;;;;;;5096458;28;20450;-71
2021/05/25 06:42:52;;;;;;;0.90;0.30;;;11.00;74.20;;;;;;5096695;28;20096;-69
2021/05/25 06:45:18;;;;;;;2.25;0.40;;;11.00;74.40;;;;;;5096430;28;20027;-71
2021/05/25 06:47:44;;;;;;;3.88;0.50;;;11.00;75.00;;;;;;5115230;28;20047;-71
2021/05/25 06:50:10;;;;;;;2.47;0.40;;;11.10;75.00;;;;;;5096274;28;20070;-74
2021/05/25 06:52:36;;;;;;;2.60;0.30;;;11.10;75.60;;;;;;5096878;28;20428;-71
2021/05/25 06:55:04;;;;;;;1.92;0.30;;;11.00;75.80;;;;;;5096899;28;20361;-71
2021/05/25 06:57:30;;;;;;;0.80;0.32;;;10.90;75.80;;;;;;5096149;28;20030;-71
2021/05/25 06:59:56;;;;;;;2.65;0.50;;;10.80;76.10;;;;;;5114978;28;20027;-70
2021/05/25 07:02:23;;;;;;;2.38;0.47;;;10.80;76.30;;;;;;5096021;28;20024;-71
2021/05/25 07:04:53;;;;;;;4.47;0.40;;;10.80;77.70;;;;;;5114879;28;20031;-70
2021/05/25 07:07:19;;;;;;;0.50;0.38;;;10.70;77.30;;;;;;5095304;28;20044;-71
2021/05/25 07:09:45;;;;;;;3.38;0.40;;;10.70;78.80;;;;;;5114717;28;20028;-71
2021/05/25 07:12:12;;;;;;;3.72;0.88;;;10.70;78.40;;;;;;5114727;28;20023;-71
2021/05/25 07:14:38;;;;;;;1.83;0.40;;;10.60;79.20;;;;;;5115074;28;20460;-71
2021/05/25 07:17:04;;;;;;;3.22;0.50;;;10.60;78.40;;;;;;5114648;28;20068;-71
2021/05/25 07:19:30;;;;;;;3.17;0.30;;;10.60;78.50;;;;;;5095755;28;20114;-71
2021/05/25 07:21:56;;;;;;;3.08;0.50;;;10.60;78.40;;;;;;5114551;28;20026;-71
2021/05/25 07:24:22;;;;;;;2.28;0.30;;;10.60;79.20;;;;;;5113985;28;20020;-71
2021/05/25 07:26:48;;;;;;;2.88;0.30;;;10.60;79.40;;;;;;5096334;28;20047;-71
2021/05/25 07:29:14;;;;;;;1.60;0.40;;;10.60;79.80;;;;;;5113857;28;20055;-72
2021/05/25 07:31:39;;;;;;;1.63;0.40;;;10.70;79.80;;;;;;5096019;28;20038;-70
2021/05/25 07:34:05;;;;;;;2.40;0.40;;;10.70;79.60;;;;;;5096086;28;20024;-71
2021/05/25 07:36:31;;;;;;;4.55;0.52;;;10.70;79.90;;;;;;5095316;28;20032;-71
2021/05/25 07:38:56;;;;;;;5.43;0.25;;;10.80;80.60;;;;;;5114189;28;20024;-71
2021/05/25 07:41:22;;;;;;;0.70;0.25;;;10.70;80.00;;;;;;5113255;28;20107;-71
2021/05/25 07:43:48;;;;;;;0.63;0.30;;;10.80;80.10;;;;;;5095872;28;20024;-71
2021/05/25 07:46:16;;;;;;;2.67;0.50;;;10.80;81.10;;;;;;5095138;28;20552;-73
2021/05/25 07:48:42;;;;;;;2.03;0.30;;;10.90;80.60;;;;;;5095901;28;20506;-71
2021/05/25 07:51:08;;;;;;;1.13;0.40;;;10.90;80.30;;;;;;5095488;28;20023;-70
2021/05/25 07:53:33;;;;;;;1.90;0.55;;;11.00;80.10;;;;;;5095159;28;20645;-71
2021/05/25 07:55:59;;;;;;;1.80;0.35;;;11.00;79.30;;;;;;5113583;28;20102;-71
2021/05/25 07:58:25;;;;;;;0.30;0.20;;;10.90;79.80;;;;;;5112949;28;20023;-71
2021/05/25 08:00:52;;;;;;;0.95;0.30;;;11.00;79.70;;;;;;5113838;28;20403;-70
2021/05/25 08:03:18;;;;;;;2.40;0.30;;;11.00;78.90;;;;;;5095036;28;20065;-71
2021/05/25 08:05:44;;;;;;;1.60;0.20;;;11.10;79.30;;;;;;5095160;28;20023;-71
2021/05/25 08:08:10;;;;;;;2.35;0.30;;;11.10;78.70;;;;;;5113753;28;20039;-70
2021/05/25 08:10:36;;;;;;;0.85;0.28;;;11.10;78.40;;;;;;5112991;28;20031;-71
2021/05/25 08:13:06;;;;;;;0.95;0.30;;;11.10;78.10;;;;;;5095371;28;20084;-70
2021/05/25 08:15:34;;;;;;;3.58;0.32;;;11.00;78.00;;;;;;5094764;28;20376;-71
2021/05/25 08:21:04;;;;;;;4.05;0.45;;;11.10;77.60;;;;;;5050409;28;20033;-70
2021/05/25 08:23:29;;;;;;;0.88;0.30;;;11.10;77.20;;;;;;5033217;28;20116;-71
2021/05/25 08:25:55;;;;;;;1.63;0.40;;;11.10;76.60;;;;;;5033796;28;20232;-71
2021/05/25 08:28:22;;;;;;;2.72;0.38;;;11.20;77.00;;;;;;5033121;28;20064;-71
2021/05/25 08:30:48;;;;;;;4.75;0.40;;;11.20;76.60;;;;;;5050256;28;20036;-69
2021/05/25 08:33:15;;;;;;;1.60;0.20;;;11.20;76.60;;;;;;5033579;28;20044;-70
2021/05/25 08:35:41;;;;;;;0.80;0.30;;;11.20;76.10;;;;;;5049679;28;20032;-71
2021/05/25 08:38:10;;;;;;;1.33;0.30;;;11.20;76.20;;;;;;5033509;28;20124;-71
2021/05/25 08:40:37;;;;;;;0.70;0.60;;;11.20;76.10;;;;;;5049640;28;20044;-71
2021/05/25 08:43:03;;;;;;;2.45;0.35;;;11.20;76.10;;;;;;5033482;28;20087;-71
2021/05/25 08:45:30;;;;;;;3.97;0.25;;;11.20;76.70;;;;;;5032789;28;20044;-70
2021/05/25 08:47:56;;;;;;;3.13;0.32;;;11.20;76.00;;;;;;5033605;28;20021;-70
2021/05/25 08:50:26;;;;;;;2.67;0.30;;;11.20;75.50;;;;;;5032732;28;20437;-71
2021/05/25 08:52:53;;;;;;;1.85;0.20;;;11.20;75.10;;;;;;5091155;28;20488;-71
2021/05/25 08:55:21;;;;;;;0.30;0.20;;;11.30;75.00;;;;;;5094177;28;20122;-70
2021/05/25 08:57:48;;;;;;;2.10;0.40;;;11.40;74.40;;;;;;5113245;28;20059;-71
2021/05/25 09:00:15;;;;;;;1.90;0.30;;;11.60;73.70;;;;;;5094711;28;20471;-71
2021/05/25 09:02:41;;;;;;;2.35;0.43;;;11.60;72.90;;;;;;5115022;28;20169;-71
2021/05/25 09:05:09;;;;;;;2.47;0.40;;;11.60;73.30;;;;;;5117071;28;20499;-71
2021/05/25 09:07:46;;;;;;;3.50;0.43;;;11.80;72.70;;;;;;5097852;28;20063;-71
2021/05/25 09:10:16;;;;;;;4.03;0.43;;;11.80;71.50;;;;;;5098929;28;20043;-70
2021/05/25 09:12:49;;;;;;;2.42;0.82;;;11.80;71.00;;;;;;5098258;28;20027;-71
2021/05/25 09:15:35;;;;;;;1.15;0.30;;;12.00;71.00;;;;;;5116849;28;20024;-70
2021/05/25 09:18:12;;;;;;;3.25;0.60;;;12.10;71.10;;;;;;5098399;28;20059;-71
2021/05/25 09:20:50;;;;;;;2.40;0.60;;;12.30;69.60;;;;;;5116332;28;20023;-71
2021/05/25 09:23:19;;;;;;;1.05;0.30;;;12.40;69.40;;;;;;5098802;28;20100;-71
2021/05/25 09:25:53;;;;;;;3.70;0.63;;;12.50;68.20;;;;;;5098511;28;20052;-71
2021/05/25 09:28:20;;;;;;;1.27;0.30;;;12.40;69.70;;;;;;5116798;28;20107;-71
2021/05/25 09:30:47;;;;;;;3.10;0.40;;;12.30;68.90;;;;;;5116379;28;20452;-69
2021/05/25 09:33:14;;;;;;;1.35;0.28;;;12.30;69.70;;;;;;5116701;28;20114;-68
2021/05/25 09:35:42;;;;;;;2.17;0.38;;;12.30;68.60;;;;;;5115843;28;20272;-69
2021/05/25 09:38:19;;;;;;;2.78;0.40;;;12.40;68.60;;;;;;5116532;28;20032;-69
2021/05/25 09:40:47;;;;;;;1.48;0.60;;;12.50;68.50;;;;;;5097403;28;20065;-69
2021/05/25 09:43:27;;;;;;;1.23;0.50;;;12.60;67.60;;;;;;5098478;28;20038;-69
2021/05/25 09:46:02;;;;;;;1.60;0.35;;;12.70;66.90;;;;;;5098372;28;20161;-70
2021/05/25 09:48:51;;;;;;;2.30;0.30;;;12.70;65.40;;;;;;5115886;28;20027;-71
2021/05/25 09:51:27;;;;;;;1.88;0.68;;;12.70;63.30;;;;;;5098173;28;20384;-70
2021/05/25 09:53:53;;;;;;;1.17;0.28;;;12.70;63.80;;;;;;5116260;28;20035;-70
2021/05/25 09:56:26;;;;;;;2.85;0.40;;;12.70;64.90;;;;;;5116302;28;20023;-70
2021/05/25 09:58:53;;;;;;;2.08;0.30;;;12.80;63.80;;;;;;5097889;28;20073;-70
2021/05/25 10:01:19;;;;;;;1.58;0.22;;;12.90;64.40;;;;;;5116392;28;20031;-70
2021/05/25 10:03:50;;;;;;;2.58;0.28;;;13.00;62.90;;;;;;5097176;28;20521;-71
2021/05/25 10:06:17;;;;;;;2.17;0.38;;;12.80;63.20;;;;;;5097744;28;20054;-70
2021/05/25 10:08:46;;;;;;;0.88;0.25;;;12.90;62.50;;;;;;5097126;28;20039;-71
2021/05/25 10:11:16;;;;;;;1.00;0.40;;;13.00;63.40;;;;;;5097537;28;20035;-70
2021/05/25 10:13:42;;;;;;;0.38;0.25;;;13.00;63.30;;;;;;5096673;28;20232;-71
2021/05/25 10:16:12;;;;;;;5.85;0.30;;;12.90;62.50;;;;;;5097571;28;20023;-70
2021/05/25 10:21:11;;;;;;;3.50;0.43;;;13.00;62.50;;;;;;5115872;28;20035;-71
2021/05/25 10:23:39;;;;;;;2.25;0.50;;;12.80;63.50;;;;;;5115435;28;20034;-71
2021/05/25 10:26:09;;;;;;;1.13;0.30;;;12.80;63.70;;;;;;5097376;28;20028;-70
2021/05/25 10:28:40;;;;;;;3.90;0.98;;;12.80;62.60;;;;;;5114958;28;20024;-70
2021/05/25 10:31:26;;;;;;;3.05;0.30;;;12.90;63.70;;;;;;5115416;28;20457;-70
2021/05/25 10:34:15;;;;;;;0.73;0.30;;;13.00;63.00;;;;;;5115509;28;20023;-70
2021/05/25 10:36:47;;;;;;;1.48;0.43;;;13.10;62.20;;;;;;5096575;28;20430;-71
2021/05/25 10:39:40;;;;;;;2.15;0.45;;;13.30;62.70;;;;;;5115433;28;20031;-70
2021/05/25 10:42:27;;;;;;;2.47;0.40;;;13.40;59.60;;;;;;5115479;28;20516;-71
2021/05/25 10:44:55;;;;;;;1.65;0.40;;;13.50;59.60;;;;;;5115389;28;20024;-71
2021/05/25 10:47:29;;;;;;;2.15;0.50;;;13.50;59.90;;;;;;5115191;28;20464;-70
2021/05/25 10:49:56;;;;;;;0.88;0.25;;;13.50;59.30;;;;;;5096534;28;20035;-71
2021/05/25 10:52:22;;;;;;;1.88;0.40;;;13.40;58.00;;;;;;5096883;28;20038;-70
2021/05/25 10:54:54;;;;;;;1.83;0.50;;;13.30;59.60;;;;;;5114554;28;20028;-71
2021/05/25 10:57:37;;;;;;;4.93;0.57;;;13.30;59.00;;;;;;5114952;28;20038;-71
2021/05/25 11:00:07;;;;;;;1.35;0.30;;;13.40;60.20;;;;;;5096689;28;20387;-71
2021/05/25 11:02:47;;;;;;;3.72;0.40;;;13.50;59.80;;;;;;5114308;28;20479;-71
2021/05/25 11:05:28;;;;;;;1.95;0.32;;;13.70;58.90;;;;;;5096456;28;20023;-71
2021/05/25 11:07:55;;;;;;;3.28;0.40;;;14.00;57.90;;;;;;5115097;28;20511;-71
2021/05/25 11:10:27;;;;;;;3.70;0.40;;;14.10;58.20;;;;;;5114592;28;20032;-70
2021/05/25 11:13:14;;;;;;;2.03;0.50;;;14.00;58.00;;;;;;5096351;28;20471;-70
2021/05/25 11:16:09;;;;;;;5.10;0.50;;;14.00;57.50;;;;;;5095855;28;20488;-70
2021/05/25 11:19:06;;;;;;;4.47;0.60;;;14.00;57.40;;;;;;5095820;28;20051;-70
2021/05/25 11:27:13;;;;;;;3.13;0.38;;;13.50;59.40;;;;;;5114510;28;20030;-71
2021/05/25 11:29:52;;;;;;;3.00;0.95;;;13.00;67.90;;;;;;5095536;28;20380;-71
2021/05/25 11:32:26;;;;;;;2.97;0.60;;;12.60;72.00;;;;;;5114400;28;20042;-71
2021/05/25 11:34:58;;;;;;;1.15;0.17;;;12.50;73.60;;;;;;5114015;28;20028;-69
2021/05/25 11:37:25;;;;;;;3.25;0.32;;;12.50;72.90;;;;;;5113882;28;20027;-70
2021/05/25 11:39:53;;;;;;;1.23;0.20;;;12.40;74.00;;;;;;5095234;28;20032;-71
2021/05/25 11:42:24;;;;;;;0.80;0.38;;;12.20;73.90;;;;;;5114153;28;20028;-71
2021/05/25 11:44:52;;;;;;;4.13;0.50;;;12.20;74.60;;;;;;5095214;28;20422;-71
2021/05/25 11:47:18;;;;;;;1.77;0.40;;;12.30;75.90;;;;;;5096004;28;20488;-71
2021/05/25 11:49:44;;;;;;;2.85;0.60;;;12.60;73.90;;;;;;5112750;28;20468;-70
2021/05/25 11:52:20;;;;;;;0.85;0.30;;;12.80;72.10;;;;;;5113988;28;20410;-69
2021/05/25 11:54:47;;;;;;;5.03;0.60;;;13.00;71.30;;;;;;5095107;28;20023;-69
2021/05/25 11:57:29;;;;;;;1.83;0.60;;;12.90;71.30;;;;;;5113946;28;20031;-69
2021/05/25 12:00:02;;;;;;;1.77;0.60;;;13.00;73.10;;;;;;5095802;28;20054;-69
2021/05/25 12:02:30;;;;;;;5.55;0.70;;;13.10;72.30;;;;;;5095613;28;20054;-69
2021/05/25 12:05:04;;;;;;;3.17;0.60;;;13.10;72.30;;;;;;5095607;28;20031;-69
2021/05/25 12:07:30;;;;;;;2.22;0.50;;;13.00;70.50;;;;;;5113469;28;20047;-70
2021/05/25 12:09:58;;;;;;;3.17;0.50;;;13.00;69.80;;;;;;5095249;28;20028;-69
2021/05/25 12:12:28;;;;;;;3.88;0.30;;;13.20;69.30;;;;;;5095669;28;20054;-69
2021/05/25 12:14:54;;;;;;;1.63;0.50;;;13.50;68.90;;;;;;5094700;28;20453;-69
2021/05/25 12:17:21;;;;;;;2.95;0.47;;;13.60;66.70;;;;;;5113915;28;20034;-69
2021/05/25 12:19:55;;;;;;;2.20;0.40;;;13.80;67.70;;;;;;5094679;28;20063;-69
2021/05/25 12:22:33;;;;;;;4.15;0.60;;;14.00;67.40;;;;;;5095154;28;20077;-69
2021/05/25 12:25:26;;;;;;;2.35;0.60;;;14.20;64.80;;;;;;5095117;28;20484;-69
2021/05/25 12:28:04;;;;;;;3.03;0.40;;;14.30;63.40;;;;;;5094578;28;20104;-69
2021/05/25 12:30:30;;;;;;;1.73;0.50;;;14.50;62.70;;;;;;5095017;28;20465;-69
2021/05/25 12:32:56;;;;;;;1.98;0.50;;;14.60;60.30;;;;;;5095047;28;20028;-69
2021/05/25 12:35:25;;;;;;;3.72;0.40;;;14.50;60.30;;;;;;5094859;28;20483;-69
2021/05/25 12:38:12;;;;;;;2.35;0.40;;;14.50;60.40;;;;;;5112343;28;20631;-69
2021/05/25 12:40:40;;;;;;;0.57;0.30;;;14.60;60.00;;;;;;5094422;28;20020;-69
2021/05/25 12:43:26;;;;;;;0.65;0.20;;;14.70;59.60;;;;;;5113179;28;20027;-69
2021/05/25 12:45:53;;;;;;;2.28;0.40;;;14.90;57.70;;;;;;5112601;28;20063;-69
2021/05/25 12:48:31;;;;;;;1.95;0.20;;;15.10;56.80;;;;;;5113068;28;20023;-69
2021/05/25 12:50:57;;;;;;;3.88;0.60;;;15.20;56.00;;;;;;5094759;28;20472;-69
2021/05/25 12:53:23;;;;;;;3.58;0.52;;;15.30;53.30;;;;;;5113040;28;20035;-69
2021/05/25 12:55:51;;;;;;;1.58;0.30;;;15.30;52.10;;;;;;5112439;28;20042;-69
2021/05/25 12:58:37;;;;;;;4.80;0.40;;;15.20;52.10;;;;;;5112977;28;20085;-69
2021/05/25 13:01:34;;;;;;;4.60;0.60;;;15.10;50.50;;;;;;5094723;28;20497;-69
2021/05/25 13:04:03;;;;;;;1.52;0.50;;;15.00;53.00;;;;;;5094767;28;20035;-69
2021/05/25 13:09:15;;;;;;;0.85;0.30;;;14.90;59.30;;;;;;5112248;28;20036;-69
2021/05/25 13:12:00;;;;;;;1.38;0.57;;;15.10;58.50;;;;;;5112186;28;20038;-69